Time;durP1;ratioP1;P1;durP2;ratioP2;P2;SDS_P1;SDS_P2;PMS_P1;PMS_P2;Temp;Humidity;BMP_temperature;BMP_pressure;BME280_temperature;BME280_humidity;BME280_pressure;Samples;Min_cycle;Max_cycle;Signal;HPM_P1;HPM_P2
2023/09/06 00:02:06;;;;;;;2.40;1.73;;;;;;;20.96;58.73;98957.94;5149813;27;20491;-92
2023/09/06 00:04:32;;;;;;;4.50;1.52;;;;;;;20.98;59.86;98979.47;5153305;27;20126;-93
2023/09/06 00:06:59;;;;;;;4.20;2.08;;;;;;;20.78;60.29;98954.63;5155389;27;20166;-93
2023/09/06 00:09:26;;;;;;;3.78;2.00;;;;;;;20.98;60.35;98991.16;5156915;27;20047;-92
2023/09/06 00:11:52;;;;;;;4.43;1.98;;;;;;;20.87;60.50;98972.06;5157727;27;20039;-92
2023/09/06 00:14:19;;;;;;;6.72;2.08;;;;;;;21.03;60.83;98988.13;5157095;27;20503;-94
2023/09/06 00:16:48;;;;;;;4.05;1.85;;;;;;;20.77;61.92;98981.75;5158639;27;20475;-94
2023/09/06 00:19:17;;;;;;;3.25;2.08;;;;;;;20.75;61.37;98949.41;5159340;27;20034;-93
2023/09/06 00:21:43;;;;;;;3.78;2.00;;;;;;;21.15;60.95;98984.63;5158728;27;20117;-93
2023/09/06 00:24:10;;;;;;;5.03;2.00;;;;;;;20.65;63.01;98992.41;5158901;27;20014;-92
2023/09/06 00:26:38;;;;;;;2.65;1.67;;;;;;;20.98;61.96;98976.75;5158269;27;20041;-92
2023/09/06 00:29:04;;;;;;;2.50;2.00;;;;;;;20.88;62.39;98990.00;5156668;27;20121;-91
2023/09/06 00:31:31;;;;;;;6.72;2.33;;;;;;;20.74;63.13;98979.25;5156861;27;20129;-94
2023/09/06 00:33:57;;;;;;;5.60;2.30;;;;;;;21.11;61.96;98956.91;5158281;27;20361;-93
2023/09/06 00:36:23;;;;;;;4.15;2.13;;;;;;;21.13;62.37;98970.34;5158733;27;20079;-93
2023/09/06 00:38:48;;;;;;;2.72;1.90;;;;;;;21.25;62.36;98961.41;5155830;27;20042;-93
2023/09/06 00:41:14;;;;;;;3.42;1.90;;;;;;;21.07;63.23;98982.41;5159083;27;20125;-91
2023/09/06 00:43:42;;;;;;;4.82;2.47;;;;;;;20.55;64.43;98931.78;5157785;27;20138;-93
2023/09/06 00:46:07;;;;;;;3.83;2.25;;;;;;;20.97;63.53;98956.97;5156864;27;20046;-93
2023/09/06 00:48:35;;;;;;;5.65;2.28;;;;;;;20.69;63.99;98936.31;5158388;27;20468;-95
2023/09/06 00:51:01;;;;;;;4.90;2.38;;;;;;;20.59;66.11;98971.16;5158320;27;20033;-92
2023/09/06 00:53:27;;;;;;;6.70;2.13;;;;;;;20.96;64.86;98987.66;5158498;27;20038;-92
2023/09/06 00:55:53;;;;;;;4.70;1.77;;;;;;;20.65;65.83;98962.66;5158560;27;20091;-94
2023/09/06 00:58:20;;;;;;;3.83;2.40;;;;;;;20.70;65.00;98943.44;5158474;27;20050;-91
2023/09/06 01:00:49;;;;;;;5.32;2.25;;;;;;;20.67;66.16;98974.25;5157154;27;20035;-92
2023/09/06 01:03:15;;;;;;;4.25;2.35;;;;;;;20.63;65.93;98966.44;5126993;27;20039;-92
2023/09/06 01:05:46;;;;;;;4.55;2.40;;;;;;;20.80;65.20;98941.88;5128418;27;20415;-92
2023/09/06 01:08:18;;;;;;;6.25;2.38;;;;;;;20.67;65.48;98941.81;5133682;27;20035;-94
2023/09/06 01:10:44;;;;;;;3.53;2.03;;;;;;;20.71;64.96;98939.78;5129437;27;20046;-94
2023/09/06 01:13:10;;;;;;;4.57;2.08;;;;;;;21.07;64.39;98949.09;5126640;27;20051;-92
2023/09/06 01:15:40;;;;;;;4.80;2.20;;;;;;;21.13;64.62;98960.38;5131899;27;20130;-93
2023/09/06 01:18:08;;;;;;;3.08;2.03;;;;;;;21.47;63.48;98955.41;5131087;27;20066;-93
2023/09/06 01:20:39;;;;;;;3.88;1.88;;;;;;;21.44;62.59;98903.34;5124967;27;20042;-93
2023/09/06 01:23:15;;;;;;;7.93;2.45;;;;;;;21.58;63.42;98964.59;5128989;27;20030;-95
2023/09/06 01:25:46;;;;;;;4.80;2.15;;;;;;;21.66;62.71;98930.63;5129621;27;20051;-92
2023/09/06 01:28:11;;;;;;;2.75;2.05;;;;;;;21.66;63.79;98962.25;5130480;27;20490;-95
2023/09/06 01:30:37;;;;;;;3.65;2.55;;;;;;;21.79;63.21;98959.53;5124390;27;20131;-92
2023/09/06 01:33:03;;;;;;;3.47;1.98;;;;;;;21.45;63.94;98938.41;5126460;27;20488;-93
2023/09/06 01:35:29;;;;;;;4.75;2.22;;;;;;;21.97;62.45;98949.25;5130569;27;20035;-93
2023/09/06 01:37:56;;;;;;;6.32;2.10;;;;;;;21.61;63.90;98959.84;5131470;27;20084;-93
2023/09/06 01:40:26;;;;;;;4.75;2.53;;;;;;;21.50;64.62;98959.75;5127161;27;20039;-93
2023/09/06 01:42:53;;;;;;;;;;;;;;;21.48;65.16;98969.81;5129281;27;20050;-93
2023/09/06 01:45:20;;;;;;;7.25;2.30;;;;;;;21.71;64.19;98941.16;5128649;27;19926;-93
2023/09/06 01:47:48;;;;;;;4.88;2.33;;;;;;;21.70;63.88;98923.16;5124141;27;20065;-93
2023/09/06 01:50:19;;;;;;;4.07;2.03;;;;;;;21.49;64.84;98926.41;5129025;27;20040;-92
2023/09/06 01:52:46;;;;;;;6.47;2.53;;;;;;;21.31;66.04;98928.50;5122077;27;20027;-91
2023/09/06 01:55:11;;;;;;;4.57;2.42;;;;;;;21.34;66.27;98922.03;5126144;27;20109;-93
2023/09/06 01:57:37;;;;;;;7.07;2.42;;;;;;;21.23;66.59;98932.69;5128456;27;20043;-92
2023/09/06 02:03:00;;;;;;;2.58;1.90;;;;;;;21.52;66.17;98946.97;5088942;27;1429833;-94
2023/09/06 02:05:26;;;;;;;3.97;2.50;;;;;;;21.34;66.70;98947.25;5127183;27;20043;-94
2023/09/06 02:07:52;;;;;;;6.22;2.53;;;;;;;21.09;67.44;98925.53;5128497;27;20108;-93
2023/09/06 02:10:18;;;;;;;5.07;2.42;;;;;;;21.15;66.89;98910.75;5126161;27;20058;-94
2023/09/06 02:12:44;;;;;;;6.10;2.65;;;;;;;21.18;66.86;98922.19;5128671;27;20043;-93
2023/09/06 02:15:14;;;;;;;5.50;2.35;;;;;;;21.08;67.53;98923.81;5126971;27;20039;-94
2023/09/06 02:17:42;;;;;;;4.20;2.22;;;;;;;21.54;66.37;98953.16;5128016;27;20050;-93
2023/09/06 02:20:17;;;;;;;5.53;2.65;;;;;;;21.49;66.61;98934.53;5131577;27;20035;-94
2023/09/06 02:22:43;;;;;;;4.32;2.65;;;;;;;21.44;66.68;98946.63;5123550;27;20785;-92
2023/09/06 02:25:09;;;;;;;5.57;2.53;;;;;;;20.69;68.85;98904.75;5129375;27;20038;-93
2023/09/06 02:27:35;;;;;;;3.55;2.13;;;;;;;21.35;67.62;98939.97;5129210;27;20114;-93
2023/09/06 02:30:05;;;;;;;5.45;2.30;;;;;;;21.78;65.58;98918.09;5124426;27;20039;-92
2023/09/06 02:32:32;;;;;;;4.72;2.95;;;;;;;21.72;66.26;98929.34;5130768;27;20091;-93
2023/09/06 02:34:58;;;;;;;6.85;2.80;;;;;;;21.61;66.36;98929.22;5128701;27;20034;-93
2023/09/06 02:37:25;;;;;;;4.18;2.40;;;;;;;21.13;68.21;98925.22;5126196;27;20093;-94
2023/09/06 02:39:54;;;;;;;5.13;2.78;;;;;;;20.89;68.80;98908.81;5124333;27;20055;-93
2023/09/06 02:42:20;;;;;;;5.30;3.22;;;;;;;21.09;68.91;98936.34;5125863;27;20042;-91
2023/09/06 02:44:46;;;;;;;5.78;3.70;;;;;;;20.89;68.80;98903.41;5127232;27;20396;-93
2023/09/06 02:47:14;;;;;;;4.60;3.22;;;;;;;21.25;68.01;98942.47;5122038;27;20092;-93
2023/09/06 02:49:42;;;;;;;5.32;3.22;;;;;;;21.38;66.71;98896.47;5124574;27;20226;-92
2023/09/06 02:52:20;;;;;;;4.50;2.50;;;;;;;21.11;68.61;98926.31;5126718;27;20044;-94
2023/09/06 02:54:48;;;;;;;6.40;2.67;;;;;;;21.24;68.48;98924.50;5128622;27;20038;-92
2023/09/06 02:57:15;;;;;;;4.22;2.67;;;;;;;21.36;68.35;98914.69;5126042;27;20032;-94
2023/09/06 02:59:41;;;;;;;5.15;2.58;;;;;;;21.45;68.38;98937.56;5122601;27;20399;-92
2023/09/06 03:02:07;;;;;;;5.10;2.58;;;;;;;21.39;68.80;98927.13;5122027;27;20096;-94
2023/09/06 03:04:37;;;;;;;6.20;3.72;;;;;;;21.06;69.97;98923.91;5129129;27;20396;-93
2023/09/06 03:07:07;;;;;;;4.95;2.55;;;;;;;21.80;68.08;98924.25;5126984;27;20043;-92
2023/09/06 03:09:35;;;;;;;5.55;2.90;;;;;;;21.64;68.10;98904.66;5125820;27;20050;-92
2023/09/06 03:12:11;;;;;;;8.13;3.28;;;;;;;21.21;69.39;98904.88;5124321;27;20060;-94
2023/09/06 03:14:37;;;;;;;6.20;2.92;;;;;;;21.35;68.96;98915.63;5111333;27;20035;-92
2023/09/06 03:17:08;;;;;;;6.25;2.78;;;;;;;21.28;69.03;98920.59;5105031;27;20058;-92
2023/09/06 03:19:38;;;;;;;7.07;3.20;;;;;;;20.65;70.43;98872.66;5111328;27;20380;-92
2023/09/06 03:22:06;;;;;;;5.30;2.75;;;;;;;21.42;68.60;98908.84;5110630;27;20035;-93
2023/09/06 03:24:32;;;;;;;5.85;3.30;;;;;;;21.29;68.01;98862.81;5114098;27;20035;-92
2023/09/06 03:26:58;;;;;;;6.28;3.17;;;;;;;21.45;68.12;98880.75;5106763;27;20045;-93
2023/09/06 03:29:27;;;;;;;6.32;3.10;;;;;;;21.40;68.86;98915.31;5114335;27;20515;-92
2023/09/06 03:31:53;;;;;;;4.38;2.40;;;;;;;21.37;68.98;98905.56;5105851;27;20498;-91
2023/09/06 03:34:19;;;;;;;4.75;2.50;;;;;;;21.44;69.30;98914.16;5112321;27;20130;-91
2023/09/06 03:36:46;;;;;;;4.45;2.80;;;;;;;21.19;70.00;98914.94;5112311;27;20053;-91
2023/09/06 03:39:14;;;;;;;7.90;3.15;;;;;;;21.35;68.83;98883.16;5111611;27;20976;-93
2023/09/06 03:41:41;;;;;;;4.82;3.17;;;;;;;21.15;69.56;98872.88;5115576;27;20081;-93
2023/09/06 03:44:07;;;;;;;5.15;2.47;;;;;;;21.43;68.67;98894.38;5109082;27;20036;-93
2023/09/06 03:46:34;;;;;;;6.22;2.42;;;;;;;21.44;68.95;98904.19;5111030;27;20073;-93
2023/09/06 03:49:00;;;;;;;6.57;2.90;;;;;;;21.24;69.51;98874.94;5110758;27;20488;-93
2023/09/06 03:51:27;;;;;;;5.20;2.47;;;;;;;21.48;69.25;98916.53;5109679;27;20040;-93
2023/09/06 03:53:53;;;;;;;4.85;2.75;;;;;;;21.34;69.55;98908.50;5109987;27;20039;-94
2023/09/06 03:56:19;;;;;;;5.78;3.00;;;;;;;21.27;70.51;98907.19;5109548;27;20031;-94
2023/09/06 03:58:45;;;;;;;5.22;3.10;;;;;;;21.52;69.32;98906.38;5109795;27;20097;-93
2023/09/06 04:01:11;;;;;;;5.43;3.88;;;;;;;21.30;69.79;98899.72;5101968;28;20474;-93
2023/09/06 04:03:38;;;;;;;8.38;3.60;;;;;;;20.66;72.05;98886.03;5085969;28;20039;-93
2023/09/06 04:06:07;;;;;;;6.32;2.70;;;;;;;21.10;70.47;98875.88;5087440;28;20036;-93
2023/09/06 04:08:34;;;;;;;7.03;3.08;;;;;;;21.13;69.94;98862.16;5084649;28;20036;-93
2023/09/06 04:10:59;;;;;;;4.40;2.65;;;;;;;21.07;71.19;98904.00;5086730;28;20109;-92
2023/09/06 04:13:25;;;;;;;6.05;3.10;;;;;;;20.99;71.07;98895.56;5084170;28;20032;-93
2023/09/06 04:15:51;;;;;;;6.05;2.97;;;;;;;21.16;71.25;98907.91;5080040;28;20049;-92
2023/09/06 04:18:18;;;;;;;4.28;3.33;;;;;;;20.96;71.58;98867.88;5091117;28;20058;-93
2023/09/06 04:20:46;;;;;;;5.43;3.58;;;;;;;21.17;71.22;98879.06;5087608;28;20059;-93
2023/09/06 04:23:13;;;;;;;7.70;3.75;;;;;;;21.11;70.39;98883.91;5088459;28;20032;-93
2023/09/06 04:25:44;;;;;;;5.45;3.72;;;;;;;21.43;69.64;98880.84;5084911;28;20044;-93
2023/09/06 04:28:12;;;;;;;6.50;3.00;;;;;;;21.52;69.59;98899.13;5088287;28;20040;-93
2023/09/06 04:30:41;;;;;;;5.82;3.50;;;;;;;21.58;69.34;98905.06;5086837;28;20457;-92
2023/09/06 04:33:12;;;;;;;5.97;3.20;;;;;;;21.22;70.66;98895.81;5085560;28;20037;-90
2023/09/06 04:35:42;;;;;;;7.57;3.20;;;;;;;21.61;69.87;98919.25;5089652;28;20032;-93
2023/09/06 04:38:11;;;;;;;4.90;3.28;;;;;;;21.41;69.75;98876.47;5089463;28;20122;-93
2023/09/06 04:40:38;;;;;;;;;;;;;;;21.47;71.08;98935.59;5086722;28;20044;-92
2023/09/06 04:43:04;;;;;;;4.72;2.92;;;;;;;20.80;72.88;98905.88;5083074;28;19919;-92
2023/09/06 04:45:30;;;;;;;4.97;3.33;;;;;;;21.02;71.60;98887.22;5086661;28;20123;-91
2023/09/06 04:47:56;;;;;;;7.47;3.47;;;;;;;21.21;71.50;98913.00;5086858;28;20483;-92
2023/09/06 04:50:22;;;;;;;4.80;3.00;;;;;;;21.20;70.99;98895.91;5087545;28;20036;-90
2023/09/06 04:52:52;;;;;;;8.10;3.58;;;;;;;21.39;70.95;98903.63;5086099;28;20170;-93
2023/09/06 04:55:20;;;;;;;4.95;2.80;;;;;;;21.34;70.95;98897.69;5084742;28;20462;-94
2023/09/06 04:57:47;;;;;;;6.82;3.30;;;;;;;21.58;70.46;98903.25;5088715;28;20036;-93
2023/09/06 05:03:11;;;;;;;7.32;3.78;;;;;;;21.34;71.82;98924.75;5087099;27;20388;-92
2023/09/06 05:05:37;;;;;;;6.43;3.50;;;;;;;21.69;70.65;98929.56;5082630;28;20445;-92
2023/09/06 05:08:03;;;;;;;7.57;3.80;;;;;;;21.52;70.81;98903.69;5082769;28;20032;-93
2023/09/06 05:10:30;;;;;;;6.55;3.28;;;;;;;21.88;69.38;98910.16;5086354;28;20417;-93
2023/09/06 05:12:56;;;;;;;4.65;3.15;;;;;;;21.83;69.28;98907.78;5085870;28;20048;-92
2023/09/06 05:15:21;;;;;;;6.95;3.38;;;;;;;21.74;68.92;98911.16;5082503;28;20277;-91
2023/09/06 05:17:47;;;;;;;5.07;3.30;;;;;;;21.97;68.18;98914.03;5082408;28;20128;-95
2023/09/06 05:20:26;;;;;;;4.85;3.00;;;;;;;21.69;69.73;98924.16;5083020;28;20040;-94
2023/09/06 05:22:52;;;;;;;7.25;4.78;;;;;;;21.54;69.95;98928.78;5085526;28;20049;-94
2023/09/06 05:25:18;;;;;;;7.45;3.70;;;;;;;21.28;70.74;98931.41;5084148;28;20131;-93
2023/09/06 05:27:44;;;;;;;5.50;3.30;;;;;;;21.66;69.02;98946.00;5082879;28;20071;-93
2023/09/06 05:30:11;;;;;;;6.38;3.10;;;;;;;22.06;68.06;98913.41;5078457;28;20039;-92
2023/09/06 05:32:37;;;;;;;5.18;3.50;;;;;;;21.95;67.67;98925.00;5080819;28;20041;-94
2023/09/06 05:35:03;;;;;;;4.65;2.80;;;;;;;22.16;67.50;98928.00;5081944;28;20104;-93
2023/09/06 05:37:30;;;;;;;6.32;3.28;;;;;;;21.99;68.25;98940.06;5085596;28;20410;-90
2023/09/06 05:39:56;;;;;;;5.78;3.30;;;;;;;21.79;67.58;98891.88;5078734;28;20037;-93
2023/09/06 05:42:22;;;;;;;6.07;3.47;;;;;;;22.33;66.17;98919.53;5079892;28;20033;-93
2023/09/06 05:44:48;;;;;;;13.55;3.72;;;;;;;21.30;69.85;98912.41;5077224;28;20044;-94
2023/09/06 05:47:13;;;;;;;5.03;3.03;;;;;;;21.26;69.43;98891.94;5078928;28;20041;-94
2023/09/06 05:49:40;;;;;;;4.88;3.05;;;;;;;21.61;69.10;98907.59;5085721;28;20036;-94
2023/09/06 05:52:06;;;;;;;7.55;3.28;;;;;;;21.73;69.12;98922.97;5093091;28;20039;-92
2023/09/06 05:54:33;;;;;;;7.22;3.55;;;;;;;21.69;68.12;98894.38;5084253;28;20032;-94
2023/09/06 05:56:59;;;;;;;5.57;3.10;;;;;;;21.93;67.93;98927.81;5082043;28;20044;-94
2023/09/06 05:59:25;;;;;;;5.47;3.40;;;;;;;22.15;66.70;98932.56;5080670;28;20029;-94
2023/09/06 06:01:51;;;;;;;7.30;3.65;;;;;;;22.17;66.84;98932.47;5082342;28;20041;-94
2023/09/06 06:04:17;;;;;;;6.47;3.28;;;;;;;22.15;67.07;98946.09;5087661;28;20079;-95
2023/09/06 06:06:43;;;;;;;5.63;3.20;;;;;;;22.08;66.61;98906.03;5079452;28;20037;-93
2023/09/06 06:09:11;;;;;;;4.85;3.42;;;;;;;22.15;67.15;98926.28;5081520;28;20047;-93
2023/09/06 06:11:40;;;;;;;6.30;2.90;;;;;;;22.21;66.58;98912.28;5087464;28;20040;-95
2023/09/06 06:14:06;;;;;;;4.90;3.00;;;;;;;22.07;66.85;98888.91;5075531;28;20051;-95
2023/09/06 06:16:32;;;;;;;6.63;3.08;;;;;;;22.28;66.38;98902.78;5070373;28;20033;-93
2023/09/06 06:18:58;;;;;;;5.88;4.10;;;;;;;22.12;66.58;98921.97;5065958;28;20048;-94
2023/09/06 06:21:26;;;;;;;7.55;3.55;;;;;;;21.92;66.91;98892.72;5063098;28;20380;-94
2023/09/06 06:23:51;;;;;;;7.70;3.72;;;;;;;22.33;66.28;98913.25;5061797;28;20041;-95
2023/09/06 06:26:20;;;;;;;5.13;3.00;;;;;;;22.76;64.16;98888.41;5067370;28;20509;-92
2023/09/06 06:28:48;;;;;;;5.35;3.05;;;;;;;23.10;63.57;98938.28;5075576;28;20036;-93
2023/09/06 06:31:14;;;;;;;7.65;4.00;;;;;;;22.84;64.73;98932.06;5070106;28;20063;-95
2023/09/06 06:33:40;;;;;;;7.40;3.25;;;;;;;22.69;64.10;98934.09;5069511;28;20045;-96
2023/09/06 06:36:07;;;;;;;6.00;3.63;;;;;;;22.88;64.03;98930.88;5070370;28;20044;-95
2023/09/06 06:38:33;;;;;;;7.72;3.85;;;;;;;23.43;62.52;98952.94;5075595;28;20043;-94
2023/09/06 06:40:59;;;;;;;6.65;3.42;;;;;;;23.42;61.80;98925.91;5075488;28;20037;-93
2023/09/06 06:43:26;;;;;;;6.47;3.63;;;;;;;23.56;62.36;98951.00;5070441;28;20033;-94
2023/09/06 06:45:54;;;;;;;5.72;4.00;;;;;;;23.78;60.35;98928.50;5069689;28;20428;-94
2023/09/06 06:48:21;;;;;;;6.25;3.08;;;;;;;24.14;59.20;98937.44;5067027;28;20129;-94
2023/09/06 06:50:47;;;;;;;6.72;3.30;;;;;;;23.48;62.23;98955.31;5075620;28;20044;-94
2023/09/06 06:53:13;;;;;;;7.13;3.30;;;;;;;23.98;61.18;98955.91;5072512;28;20086;-94
2023/09/06 06:55:39;;;;;;;6.78;3.47;;;;;;;23.88;60.89;98909.63;5060723;28;20045;-93
2023/09/06 06:58:07;;;;;;;5.82;3.30;;;;;;;24.10;59.93;98952.25;5069732;28;20131;-93
2023/09/06 07:00:34;;;;;;;5.75;3.53;;;;;;;23.76;60.87;98925.03;5065596;28;20041;-96
2023/09/06 07:03:01;;;;;;;5.80;3.30;;;;;;;24.06;60.65;98930.88;5065490;28;20103;-95
2023/09/06 07:05:27;;;;;;;5.05;3.38;;;;;;;24.08;60.14;98947.91;5065259;28;20550;-95
2023/09/06 07:07:54;;;;;;;6.43;3.30;;;;;;;24.13;61.39;98923.94;5060893;28;20068;-93
2023/09/06 07:10:21;;;;;;;5.95;3.20;;;;;;;24.08;60.24;98951.50;5085273;28;20090;-94
2023/09/06 07:12:48;;;;;;;7.53;3.47;;;;;;;23.41;62.44;98933.19;5063536;28;20042;-95
2023/09/06 07:15:14;;;;;;;7.57;3.58;;;;;;;23.94;61.25;98925.44;5075311;28;20039;-95
2023/09/06 07:17:40;;;;;;;3.67;2.70;;;;;;;24.40;60.17;98943.47;5064944;28;20037;-95
2023/09/06 07:20:09;;;;;;;8.43;3.58;;;;;;;24.68;60.18;98935.81;5066555;28;20049;-94
2023/09/06 07:22:35;;;;;;;5.47;3.40;;;;;;;24.48;60.57;98923.81;5073798;28;20044;-95
2023/09/06 07:25:01;;;;;;;8.30;3.80;;;;;;;24.65;59.36;98925.16;5071850;28;20540;-96
2023/09/06 07:27:26;;;;;;;7.35;3.45;;;;;;;24.76;60.20;98937.88;5073571;28;20023;-94
2023/09/06 07:29:52;;;;;;;5.05;3.45;;;;;;;24.22;59.79;98906.03;5074311;28;20040;-94
2023/09/06 07:32:18;;;;;;;4.53;3.35;;;;;;;24.58;60.23;98937.53;5068895;28;20043;-95
2023/09/06 07:34:44;;;;;;;5.45;3.58;;;;;;;24.07;61.60;98943.47;5068589;28;20045;-94
2023/09/06 07:37:11;;;;;;;4.78;3.10;;;;;;;24.97;59.17;98954.25;5072093;28;20051;-93
2023/09/06 07:39:37;;;;;;;7.35;3.60;;;;;;;24.07;60.12;98914.47;5065907;28;20368;-94
2023/09/06 07:42:05;;;;;;;7.28;3.30;;;;;;;24.57;59.03;98941.25;5074113;28;20039;-92
2023/09/06 07:44:32;;;;;;;6.45;3.08;;;;;;;24.72;58.66;98923.69;5071415;28;20090;-94
2023/09/06 07:46:58;;;;;;;5.80;3.70;;;;;;;25.40;56.55;98929.75;5071361;28;20079;-93
2023/09/06 07:49:30;;;;;;;6.50;3.20;;;;;;;24.95;58.48;98954.38;5071552;28;20060;-92
2023/09/06 07:51:57;;;;;;;5.53;3.22;;;;;;;25.69;56.29;98947.28;5066112;28;20091;-93
2023/09/06 07:54:24;;;;;;;5.57;3.80;;;;;;;25.75;55.42;98919.53;5066533;28;20037;-93
2023/09/06 07:56:50;;;;;;;5.80;3.20;;;;;;;24.76;58.37;98933.28;5068547;28;20040;-95
2023/09/06 07:59:20;;;;;;;5.47;4.00;;;;;;;24.91;58.63;98952.91;5063289;28;20048;-92
2023/09/06 08:01:46;;;;;;;5.72;3.53;;;;;;;25.18;57.26;98938.84;5066679;28;21348;-93
2023/09/06 08:04:12;;;;;;;5.80;3.85;;;;;;;25.47;56.09;98916.47;5071583;28;20028;-95
2023/09/06 08:06:38;;;;;;;7.55;3.63;;;;;;;26.01;54.49;98918.13;5067545;28;20033;-94
2023/09/06 08:09:04;;;;;;;4.85;3.55;;;;;;;26.10;55.06;98904.66;5067331;28;20037;-93
2023/09/06 08:11:31;;;;;;;7.13;3.60;;;;;;;25.86;56.12;98921.31;5071449;28;20394;-95
2023/09/06 08:13:57;;;;;;;5.55;4.05;;;;;;;25.77;55.85;98921.09;5065068;28;20033;-93
2023/09/06 08:16:23;;;;;;;6.05;4.13;;;;;;;25.75;53.45;98895.84;5070788;28;20139;-94
2023/09/06 08:18:49;;;;;;;7.40;3.83;;;;;;;26.13;52.89;98883.47;5066881;28;20037;-94
2023/09/06 08:21:15;;;;;;;7.90;3.95;;;;;;;26.87;50.33;98938.66;5067757;28;20045;-94
2023/09/06 08:23:41;;;;;;;9.13;4.28;;;;;;;27.06;48.45;98886.81;5063233;28;20064;-94
2023/09/06 08:26:07;;;;;;;5.63;3.85;;;;;;;27.30;49.35;98897.31;5069846;28;20071;-94
2023/09/06 08:28:35;;;;;;;6.30;4.43;;;;;;;26.55;47.68;98934.25;5070063;28;20048;-92
2023/09/06 08:31:01;;;;;;;5.43;3.78;;;;;;;26.52;47.79;98918.16;5070001;28;20041;-94
2023/09/06 08:33:27;;;;;;;7.88;4.72;;;;;;;27.20;46.89;98918.28;5067535;28;20393;-94
2023/09/06 08:35:53;;;;;;;6.18;4.00;;;;;;;27.14;46.70;98911.53;5067321;28;20037;-94
2023/09/06 08:38:18;;;;;;;6.55;4.03;;;;;;;27.82;45.25;98927.88;5074550;28;20064;-94
2023/09/06 08:40:46;;;;;;;9.48;4.20;;;;;;;27.86;44.94;98892.94;5073622;28;20060;-94
2023/09/06 08:43:15;;;;;;;4.72;3.78;;;;;;;27.36;43.88;98924.06;5068338;28;20021;-94
2023/09/06 08:45:43;;;;;;;6.10;3.92;;;;;;;27.17;44.40;98919.44;5063355;28;20041;-94
2023/09/06 08:48:10;;;;;;;9.00;3.95;;;;;;;27.25;43.88;98926.94;5068740;28;20045;-94
2023/09/06 08:50:38;;;;;;;5.25;3.38;;;;;;;26.68;44.56;98899.44;5059791;28;20041;-93
2023/09/06 08:53:05;;;;;;;7.25;3.63;;;;;;;26.97;44.83;98945.84;5069367;28;20052;-93
2023/09/06 08:55:32;;;;;;;5.65;3.58;;;;;;;26.69;45.16;98935.75;5060859;28;20039;-93
2023/09/06 08:57:59;;;;;;;6.22;3.67;;;;;;;27.13;45.12;98895.28;5069673;28;20040;-94
2023/09/06 09:00:25;;;;;;;6.28;3.88;;;;;;;26.99;44.62;98889.25;5065601;28;20049;-93
2023/09/06 09:02:52;;;;;;;6.07;3.83;;;;;;;27.53;43.84;98919.72;5068198;28;20040;-93
2023/09/06 09:05:21;;;;;;;5.45;3.28;;;;;;;27.41;43.81;98931.81;5065720;28;20037;-94
2023/09/06 09:07:49;;;;;;;4.35;3.58;;;;;;;27.41;44.01;98929.09;5068199;28;20438;-91
2023/09/06 09:10:15;;;;;;;4.95;3.85;;;;;;;27.48;44.94;98905.66;5060934;28;20044;-93
2023/09/06 09:12:42;;;;;;;4.50;4.00;;;;;;;27.18;43.85;98907.50;5067012;28;20091;-93
2023/09/06 09:15:09;;;;;;;9.25;3.70;;;;;;;26.99;43.69;98916.53;5072239;28;20144;-94
2023/09/06 09:17:38;;;;;;;9.23;3.80;;;;;;;27.27;44.58;98874.94;5069861;28;20094;-93
2023/09/06 09:20:06;;;;;;;5.53;3.65;;;;;;;27.37;44.27;98941.28;5066870;28;20390;-94
2023/09/06 09:22:35;;;;;;;6.22;3.72;;;;;;;27.39;43.59;98939.28;5063209;28;20390;-92
2023/09/06 09:25:04;;;;;;;6.25;3.30;;;;;;;27.75;42.45;98924.00;5062635;28;20024;-93
2023/09/06 09:27:31;;;;;;;4.82;3.25;;;;;;;27.88;43.14;98917.41;5071685;28;20036;-93
2023/09/06 09:29:59;;;;;;;5.78;3.70;;;;;;;27.95;42.25;98892.03;5069696;28;20045;-95
2023/09/06 09:32:25;;;;;;;5.60;4.07;;;;;;;27.99;41.61;98914.47;5064166;28;20032;-93
2023/09/06 09:34:52;;;;;;;5.40;3.85;;;;;;;28.10;41.14;98921.63;5062306;28;20106;-94
2023/09/06 09:37:19;;;;;;;5.80;3.53;;;;;;;27.40;41.88;98897.34;5065985;28;20529;-94
2023/09/06 09:39:47;;;;;;;5.63;3.55;;;;;;;28.07;41.20;98917.34;5066011;28;20162;-95
2023/09/06 09:42:13;;;;;;;6.10;4.03;;;;;;;27.37;42.81;98944.03;5063128;28;20041;-92
2023/09/06 09:44:40;;;;;;;6.65;3.60;;;;;;;27.30;42.37;98945.63;5068374;28;20036;-96
2023/09/06 09:47:12;;;;;;;5.35;3.65;;;;;;;26.80;43.21;98895.56;5069458;28;20132;-94
2023/09/06 09:49:42;;;;;;;6.10;3.85;;;;;;;27.63;41.23;98927.94;5069654;28;20044;-94
2023/09/06 09:52:10;;;;;;;6.25;3.80;;;;;;;27.72;41.66;98901.59;5073593;28;20054;-92
2023/09/06 09:54:40;;;;;;;7.65;3.53;;;;;;;27.90;40.77;98898.97;5066497;28;20044;-94
2023/09/06 09:57:06;;;;;;;6.32;3.45;;;;;;;28.18;39.90;98910.81;5068412;28;20043;-93
2023/09/06 09:59:33;;;;;;;4.63;3.53;;;;;;;27.86;39.56;98909.34;5069288;28;20524;-92
2023/09/06 10:02:00;;;;;;;5.80;3.75;;;;;;;28.66;39.27;98923.41;5066927;28;20465;-91
2023/09/06 10:04:29;;;;;;;5.40;3.97;;;;;;;27.71;40.62;98905.31;5070047;28;20086;-93
2023/09/06 10:06:57;;;;;;;6.38;3.50;;;;;;;28.45;39.93;98905.38;5073035;28;20040;-95
2023/09/06 10:09:23;;;;;;;6.75;3.38;;;;;;;28.79;38.95;98880.13;5067653;28;20033;-92
2023/09/06 10:11:51;;;;;;;4.68;3.42;;;;;;;27.61;40.56;98845.25;5070463;28;20048;-93
2023/09/06 10:14:25;;;;;;;6.05;3.08;;;;;;;28.24;40.72;98877.41;5070286;28;20371;-92
2023/09/06 10:16:52;;;;;;;5.53;3.30;;;;;;;28.59;39.52;98873.06;5066506;28;20037;-93
2023/09/06 10:19:18;;;;;;;3.72;3.00;;;;;;;28.66;40.56;98863.22;5065769;28;20041;-93
2023/09/06 10:21:48;;;;;;;4.25;3.33;;;;;;;28.38;39.83;98889.72;5069487;28;20037;-94
2023/09/06 10:24:18;;;;;;;7.35;3.70;;;;;;;28.37;40.19;98868.84;5067938;28;20051;-93
2023/09/06 10:26:54;;;;;;;4.93;3.15;;;;;;;27.98;42.18;98899.09;5068842;28;20033;-95
2023/09/06 10:29:23;;;;;;;6.13;3.22;;;;;;;28.03;42.28;98922.22;5071538;28;20040;-95
2023/09/06 10:31:51;;;;;;;6.68;3.50;;;;;;;28.47;41.49;98921.59;5067894;28;20033;-94
2023/09/06 10:34:17;;;;;;;5.25;3.40;;;;;;;27.93;41.86;98906.88;5070553;28;20089;-93
2023/09/06 10:36:51;;;;;;;6.03;3.60;;;;;;;27.82;42.01;98892.38;5070861;28;20075;-94
2023/09/06 10:39:21;;;;;;;4.80;3.42;;;;;;;28.51;41.87;98892.13;5066933;28;20041;-95
2023/09/06 10:42:19;;;;;;;7.20;3.63;;;;;;;28.58;41.40;98920.56;5072391;28;20561;-92
2023/09/06 10:45:07;;;;;;;6.00;3.78;;;;;;;28.34;41.22;98911.03;5069014;28;20036;-96
2023/09/06 10:47:34;;;;;;;6.85;3.17;;;;;;;26.93;44.35;98928.03;5068502;28;20036;-95
2023/09/06 10:50:07;;;;;;;4.25;3.40;;;;;;;27.42;43.43;98928.09;5063045;28;20041;-94
2023/09/06 10:52:41;;;;;;;4.95;3.53;;;;;;;26.72;45.32;98892.69;5074289;28;20057;-93
2023/09/06 10:55:13;;;;;;;6.97;3.85;;;;;;;27.31;44.53;98930.97;5074810;28;20139;-95
2023/09/06 10:57:54;;;;;;;5.07;3.42;;;;;;;27.21;44.79;98920.00;5069253;28;20033;-94
2023/09/06 11:00:25;;;;;;;6.15;3.22;;;;;;;27.42;43.77;98887.13;5068385;28;20069;-94
2023/09/06 11:03:21;;;;;;;4.88;3.38;;;;;;;28.37;42.77;98904.41;5070313;28;20544;-94
2023/09/06 11:05:55;;;;;;;5.15;3.40;;;;;;;28.42;42.66;98893.88;5073773;28;20044;-93
2023/09/06 11:08:25;;;;;;;5.07;2.92;;;;;;;28.74;41.86;98904.38;5077070;28;20033;-90
2023/09/06 11:10:53;;;;;;;;;;;;;;;29.03;41.69;98911.50;5070698;28;20043;-96
2023/09/06 11:13:20;;;;;;;;;;;;;;;28.78;41.86;98915.84;5063588;28;20013;-95
2023/09/06 11:15:50;;;;;;;7.15;3.20;;;;;;;28.74;41.15;98870.66;5069498;28;19942;-92
2023/09/06 11:18:18;;;;;;;4.53;3.17;;;;;;;28.41;41.13;98821.91;5068706;28;20037;-92
2023/09/06 11:20:48;;;;;;;6.45;3.50;;;;;;;27.87;42.04;98886.47;5068898;28;20048;-94
2023/09/06 11:23:14;;;;;;;5.40;3.58;;;;;;;28.34;42.80;98888.28;5069455;28;20064;-96
2023/09/06 11:25:40;;;;;;;5.45;3.25;;;;;;;28.60;40.69;98870.16;5076060;28;20041;-93
2023/09/06 11:28:16;;;;;;;6.35;4.15;;;;;;;28.51;40.43;98875.72;5069079;28;20047;-91
2023/09/06 11:30:46;;;;;;;4.97;3.42;;;;;;;27.87;41.85;98856.41;5070033;28;20474;-95
2023/09/06 11:33:13;;;;;;;5.10;3.22;;;;;;;28.09;40.88;98821.50;5067224;28;20045;-94
2023/09/06 11:35:45;;;;;;;4.80;3.28;;;;;;;28.35;41.85;98892.75;5059020;28;20021;-94
2023/09/06 11:38:16;;;;;;;6.78;3.33;;;;;;;28.37;41.01;98836.03;5071029;28;20913;-94
2023/09/06 11:40:44;;;;;;;8.00;3.55;;;;;;;28.80;40.04;98850.88;5078142;28;20040;-94
2023/09/06 11:43:13;;;;;;;5.97;3.38;;;;;;;29.28;39.61;98864.19;5075225;28;20419;-95